sensor_id;sensor_type;location;lat;lon;timestamp;P1;durP1;ratioP1;P2;durP2;ratioP2
142;SDS011;23959;49.046;8.468;2022-07-01T00:01:26;5.60;;;3.13;;
142;SDS011;23959;49.046;8.468;2022-07-01T00:03:53;2.80;;;2.33;;
142;SDS011;23959;49.046;8.468;2022-07-01T00:06:20;5.00;;;2.37;;
142;SDS011;23959;49.046;8.468;2022-07-01T00:08:46;4.33;;;2.23;;
142;SDS011;23959;49.046;8.468;2022-07-01T00:11:13;4.90;;;2.30;;
142;SDS011;23959;49.046;8.468;2022-07-01T00:13:40;3.33;;;2.20;;
142;SDS011;23959;49.046;8.468;2022-07-01T00:16:06;2.57;;;2.20;;
142;SDS011;23959;49.046;8.468;2022-07-01T00:18:32;2.90;;;2.10;;
142;SDS011;23959;49.046;8.468;2022-07-01T00:20:59;2.93;;;2.20;;
142;SDS011;23959;49.046;8.468;2022-07-01T00:23:27;6.13;;;2.00;;
142;SDS011;23959;49.046;8.468;2022-07-01T00:25:53;3.70;;;1.90;;
142;SDS011;23959;49.046;8.468;2022-07-01T00:28:19;6.13;;;2.30;;
142;SDS011;23959;49.046;8.468;2022-07-01T00:30:46;3.17;;;2.47;;
142;SDS011;23959;49.046;8.468;2022-07-01T00:33:12;3.23;;;2.20;;
142;SDS011;23959;49.046;8.468;2022-07-01T00:35:38;2.70;;;2.10;;
142;SDS011;23959;49.046;8.468;2022-07-01T00:38:04;3.07;;;2.30;;
142;SDS011;23959;49.046;8.468;2022-07-01T00:40:30;2.80;;;2.30;;
142;SDS011;23959;49.046;8.468;2022-07-01T00:42:57;4.00;;;2.20;;
142;SDS011;23959;49.046;8.468;2022-07-01T00:45:23;6.70;;;2.00;;
142;SDS011;23959;49.046;8.468;2022-07-01T00:47:49;2.40;;;2.07;;
142;SDS011;23959;49.046;8.468;2022-07-01T00:50:15;3.17;;;2.17;;
142;SDS011;23959;49.046;8.468;2022-07-01T00:52:43;4.10;;;2.30;;
142;SDS011;23959;49.046;8.468;2022-07-01T00:55:11;2.50;;;2.10;;
142;SDS011;23959;49.046;8.468;2022-07-01T00:57:39;6.80;;;2.33;;
142;SDS011;23959;49.046;8.468;2022-07-01T01:00:07;6.60;;;2.50;;
142;SDS011;23959;49.046;8.468;2022-07-01T01:02:47;2.50;;;2.07;;
142;SDS011;23959;49.046;8.468;2022-07-01T01:05:14;3.10;;;2.33;;
142;SDS011;23959;49.046;8.468;2022-07-01T01:07:40;4.60;;;2.23;;
142;SDS011;23959;49.046;8.468;2022-07-01T01:10:06;4.87;;;2.57;;
142;SDS011;23959;49.046;8.468;2022-07-01T01:12:33;3.47;;;2.00;;
142;SDS011;23959;49.046;8.468;2022-07-01T01:14:59;4.27;;;2.30;;
142;SDS011;23959;49.046;8.468;2022-07-01T01:17:25;2.87;;;2.50;;
142;SDS011;23959;49.046;8.468;2022-07-01T01:19:52;2.70;;;2.20;;
142;SDS011;23959;49.046;8.468;2022-07-01T01:22:21;2.63;;;2.40;;
142;SDS011;23959;49.046;8.468;2022-07-01T01:24:47;3.27;;;2.30;;
142;SDS011;23959;49.046;8.468;2022-07-01T01:27:14;2.93;;;2.10;;
142;SDS011;23959;49.046;8.468;2022-07-01T01:29:41;4.20;;;2.40;;
142;SDS011;23959;49.046;8.468;2022-07-01T01:32:08;2.87;;;2.20;;
142;SDS011;23959;49.046;8.468;2022-07-01T01:34:36;2.83;;;2.27;;
142;SDS011;23959;49.046;8.468;2022-07-01T01:37:04;3.80;;;2.40;;
142;SDS011;23959;49.046;8.468;2022-07-01T01:39:32;5.60;;;2.60;;
142;SDS011;23959;49.046;8.468;2022-07-01T01:41:58;4.40;;;2.53;;
142;SDS011;23959;49.046;8.468;2022-07-01T01:44:25;5.47;;;2.30;;
142;SDS011;23959;49.046;8.468;2022-07-01T01:46:51;2.80;;;2.50;;
142;SDS011;23959;49.046;8.468;2022-07-01T01:49:18;3.33;;;2.17;;
142;SDS011;23959;49.046;8.468;2022-07-01T01:51:44;6.03;;;2.27;;
142;SDS011;23959;49.046;8.468;2022-07-01T01:54:10;3.77;;;2.70;;
142;SDS011;23959;49.046;8.468;2022-07-01T01:56:36;3.03;;;2.27;;
142;SDS011;23959;49.046;8.468;2022-07-01T01:59:02;4.47;;;2.30;;
142;SDS011;23959;49.046;8.468;2022-07-01T02:01:30;2.63;;;2.40;;
142;SDS011;23959;49.046;8.468;2022-07-01T02:03:56;3.13;;;2.20;;
142;SDS011;23959;49.046;8.468;2022-07-01T02:06:24;3.20;;;2.40;;
142;SDS011;23959;49.046;8.468;2022-07-01T02:08:51;2.20;;;2.03;;
142;SDS011;23959;49.046;8.468;2022-07-01T02:11:17;3.20;;;2.20;;
142;SDS011;23959;49.046;8.468;2022-07-01T02:13:43;2.90;;;2.33;;
142;SDS011;23959;49.046;8.468;2022-07-01T02:16:10;4.60;;;2.53;;
142;SDS011;23959;49.046;8.468;2022-07-01T02:18:36;5.20;;;2.37;;
142;SDS011;23959;49.046;8.468;2022-07-01T02:21:02;4.00;;;2.63;;
142;SDS011;23959;49.046;8.468;2022-07-01T02:23:28;2.60;;;2.50;;
142;SDS011;23959;49.046;8.468;2022-07-01T02:25:55;2.40;;;2.20;;
142;SDS011;23959;49.046;8.468;2022-07-01T02:28:21;3.00;;;2.50;;
142;SDS011;23959;49.046;8.468;2022-07-01T02:30:47;3.50;;;2.30;;
142;SDS011;23959;49.046;8.468;2022-07-01T02:33:13;6.40;;;2.53;;
142;SDS011;23959;49.046;8.468;2022-07-01T02:35:40;3.10;;;2.70;;
142;SDS011;23959;49.046;8.468;2022-07-01T02:38:07;3.73;;;2.50;;
142;SDS011;23959;49.046;8.468;2022-07-01T02:40:33;2.63;;;2.30;;
142;SDS011;23959;49.046;8.468;2022-07-01T02:43:03;4.00;;;2.60;;
142;SDS011;23959;49.046;8.468;2022-07-01T02:45:30;2.90;;;2.63;;
142;SDS011;23959;49.046;8.468;2022-07-01T02:47:56;5.70;;;2.73;;
142;SDS011;23959;49.046;8.468;2022-07-01T02:50:22;6.13;;;2.63;;
142;SDS011;23959;49.046;8.468;2022-07-01T02:52:48;5.67;;;2.50;;
142;SDS011;23959;49.046;8.468;2022-07-01T02:55:15;3.23;;;2.73;;
142;SDS011;23959;49.046;8.468;2022-07-01T02:57:42;2.90;;;2.37;;
142;SDS011;23959;49.046;8.468;2022-07-01T03:00:09;4.50;;;2.60;;
142;SDS011;23959;49.046;8.468;2022-07-01T03:02:37;3.07;;;2.50;;
142;SDS011;23959;49.046;8.468;2022-07-01T03:05:04;4.37;;;2.53;;
142;SDS011;23959;49.046;8.468;2022-07-01T03:07:31;3.80;;;3.03;;
142;SDS011;23959;49.046;8.468;2022-07-01T03:09:57;5.40;;;2.60;;
142;SDS011;23959;49.046;8.468;2022-07-01T03:12:23;2.97;;;2.80;;
142;SDS011;23959;49.046;8.468;2022-07-01T03:15:03;3.37;;;2.80;;
142;SDS011;23959;49.046;8.468;2022-07-01T03:17:32;2.83;;;2.70;;
142;SDS011;23959;49.046;8.468;2022-07-01T03:19:59;2.50;;;2.40;;
142;SDS011;23959;49.046;8.468;2022-07-01T03:22:29;5.27;;;2.70;;
142;SDS011;23959;49.046;8.468;2022-07-01T03:24:57;3.30;;;2.47;;
142;SDS011;23959;49.046;8.468;2022-07-01T03:27:24;5.07;;;3.60;;
142;SDS011;23959;49.046;8.468;2022-07-01T03:29:50;4.97;;;3.00;;
142;SDS011;23959;49.046;8.468;2022-07-01T03:32:17;3.93;;;3.13;;
142;SDS011;23959;49.046;8.468;2022-07-01T03:34:45;3.70;;;2.93;;
142;SDS011;23959;49.046;8.468;2022-07-01T03:37:12;3.43;;;3.27;;
142;SDS011;23959;49.046;8.468;2022-07-01T03:39:39;8.17;;;3.17;;
142;SDS011;23959;49.046;8.468;2022-07-01T03:42:06;3.50;;;2.97;;
142;SDS011;23959;49.046;8.468;2022-07-01T03:44:33;3.80;;;3.10;;
142;SDS011;23959;49.046;8.468;2022-07-01T03:47:00;4.77;;;3.33;;
142;SDS011;23959;49.046;8.468;2022-07-01T03:49:27;3.27;;;2.90;;
142;SDS011;23959;49.046;8.468;2022-07-01T03:51:54;4.40;;;3.67;;
142;SDS011;23959;49.046;8.468;2022-07-01T03:54:20;4.97;;;3.93;;
142;SDS011;23959;49.046;8.468;2022-07-01T03:57:08;4.73;;;3.60;;
142;SDS011;23959;49.046;8.468;2022-07-01T03:59:36;6.87;;;3.10;;
142;SDS011;23959;49.046;8.468;2022-07-01T04:02:04;5.00;;;3.70;;
142;SDS011;23959;49.046;8.468;2022-07-01T04:04:31;8.87;;;4.00;;
142;SDS011;23959;49.046;8.468;2022-07-01T04:06:59;5.80;;;3.60;;
142;SDS011;23959;49.046;8.468;2022-07-01T04:09:27;5.57;;;3.80;;
142;SDS011;23959;49.046;8.468;2022-07-01T04:11:54;11.30;;;4.63;;
142;SDS011;23959;49.046;8.468;2022-07-01T04:14:20;15.13;;;3.70;;
142;SDS011;23959;49.046;8.468;2022-07-01T04:16:47;4.40;;;3.70;;
142;SDS011;23959;49.046;8.468;2022-07-01T04:19:13;5.20;;;3.60;;
142;SDS011;23959;49.046;8.468;2022-07-01T04:21:40;3.90;;;3.53;;
142;SDS011;23959;49.046;8.468;2022-07-01T04:24:25;3.60;;;3.27;;
142;SDS011;23959;49.046;8.468;2022-07-01T04:26:52;3.13;;;3.00;;
142;SDS011;23959;49.046;8.468;2022-07-01T04:29:18;4.13;;;3.07;;
142;SDS011;23959;49.046;8.468;2022-07-01T04:31:45;6.47;;;3.50;;
142;SDS011;23959;49.046;8.468;2022-07-01T04:34:11;4.30;;;3.10;;
142;SDS011;23959;49.046;8.468;2022-07-01T04:36:37;3.40;;;2.67;;
142;SDS011;23959;49.046;8.468;2022-07-01T04:39:04;3.80;;;2.43;;
142;SDS011;23959;49.046;8.468;2022-07-01T04:41:31;4.30;;;2.60;;
142;SDS011;23959;49.046;8.468;2022-07-01T04:44:16;4.00;;;3.17;;
142;SDS011;23959;49.046;8.468;2022-07-01T04:46:43;3.50;;;3.07;;
142;SDS011;23959;49.046;8.468;2022-07-01T04:49:09;3.47;;;2.83;;
142;SDS011;23959;49.046;8.468;2022-07-01T04:51:35;4.60;;;3.10;;
142;SDS011;23959;49.046;8.468;2022-07-01T04:54:05;4.83;;;2.70;;
142;SDS011;23959;49.046;8.468;2022-07-01T04:56:32;10.73;;;2.80;;
142;SDS011;23959;49.046;8.468;2022-07-01T04:58:59;2.67;;;2.50;;
142;SDS011;23959;49.046;8.468;2022-07-01T05:01:26;3.50;;;2.70;;
142;SDS011;23959;49.046;8.468;2022-07-01T05:03:54;4.20;;;2.40;;
142;SDS011;23959;49.046;8.468;2022-07-01T05:06:21;2.73;;;2.60;;
142;SDS011;23959;49.046;8.468;2022-07-01T05:08:47;3.13;;;2.67;;
142;SDS011;23959;49.046;8.468;2022-07-01T05:11:13;6.90;;;2.77;;
142;SDS011;23959;49.046;8.468;2022-07-01T05:13:39;4.87;;;2.60;;
142;SDS011;23959;49.046;8.468;2022-07-01T05:16:06;7.00;;;2.50;;
142;SDS011;23959;49.046;8.468;2022-07-01T05:18:34;3.10;;;2.60;;
142;SDS011;23959;49.046;8.468;2022-07-01T05:21:20;4.67;;;2.43;;
142;SDS011;23959;49.046;8.468;2022-07-01T05:24:05;6.13;;;2.87;;
142;SDS011;23959;49.046;8.468;2022-07-01T05:26:32;7.80;;;3.00;;
142;SDS011;23959;49.046;8.468;2022-07-01T05:28:59;6.50;;;2.80;;
142;SDS011;23959;49.046;8.468;2022-07-01T05:31:25;2.90;;;2.63;;
142;SDS011;23959;49.046;8.468;2022-07-01T05:33:51;3.77;;;2.70;;
142;SDS011;23959;49.046;8.468;2022-07-01T05:36:17;3.67;;;2.90;;
142;SDS011;23959;49.046;8.468;2022-07-01T05:38:43;4.80;;;2.80;;
142;SDS011;23959;49.046;8.468;2022-07-01T05:41:09;6.53;;;3.20;;
142;SDS011;23959;49.046;8.468;2022-07-01T05:43:35;3.60;;;2.73;;
142;SDS011;23959;49.046;8.468;2022-07-01T05:46:02;4.80;;;3.13;;
142;SDS011;23959;49.046;8.468;2022-07-01T05:48:28;7.80;;;3.47;;
142;SDS011;23959;49.046;8.468;2022-07-01T05:50:54;4.70;;;3.20;;
142;SDS011;23959;49.046;8.468;2022-07-01T05:53:21;5.83;;;3.60;;
142;SDS011;23959;49.046;8.468;2022-07-01T05:55:47;7.70;;;3.50;;
142;SDS011;23959;49.046;8.468;2022-07-01T05:58:14;6.87;;;3.70;;
142;SDS011;23959;49.046;8.468;2022-07-01T06:00:40;6.50;;;3.67;;
142;SDS011;23959;49.046;8.468;2022-07-01T06:03:07;7.60;;;3.57;;
142;SDS011;23959;49.046;8.468;2022-07-01T06:05:34;7.43;;;3.90;;
142;SDS011;23959;49.046;8.468;2022-07-01T06:08:00;5.00;;;3.70;;
142;SDS011;23959;49.046;8.468;2022-07-01T06:10:26;6.53;;;3.77;;
142;SDS011;23959;49.046;8.468;2022-07-01T06:12:53;7.73;;;3.87;;
142;SDS011;23959;49.046;8.468;2022-07-01T06:15:19;7.93;;;4.20;;
142;SDS011;23959;49.046;8.468;2022-07-01T06:17:45;4.90;;;3.97;;
142;SDS011;23959;49.046;8.468;2022-07-01T06:20:11;7.50;;;3.90;;
142;SDS011;23959;49.046;8.468;2022-07-01T06:22:37;7.10;;;4.50;;
142;SDS011;23959;49.046;8.468;2022-07-01T06:25:04;4.83;;;4.00;;
142;SDS011;23959;49.046;8.468;2022-07-01T06:27:30;5.90;;;4.50;;
142;SDS011;23959;49.046;8.468;2022-07-01T06:29:56;6.13;;;4.50;;
142;SDS011;23959;49.046;8.468;2022-07-01T06:32:22;5.83;;;4.50;;
142;SDS011;23959;49.046;8.468;2022-07-01T06:34:49;5.47;;;4.37;;
142;SDS011;23959;49.046;8.468;2022-07-01T06:37:15;7.60;;;4.17;;
142;SDS011;23959;49.046;8.468;2022-07-01T06:39:41;6.93;;;4.77;;
142;SDS011;23959;49.046;8.468;2022-07-01T06:42:07;6.63;;;4.43;;
142;SDS011;23959;49.046;8.468;2022-07-01T06:44:33;8.90;;;4.60;;
142;SDS011;23959;49.046;8.468;2022-07-01T06:47:00;5.47;;;4.47;;
142;SDS011;23959;49.046;8.468;2022-07-01T06:49:26;5.30;;;4.13;;
142;SDS011;23959;49.046;8.468;2022-07-01T06:51:52;5.57;;;4.53;;
142;SDS011;23959;49.046;8.468;2022-07-01T06:54:18;10.70;;;4.97;;
142;SDS011;23959;49.046;8.468;2022-07-01T06:56:44;7.27;;;4.97;;
142;SDS011;23959;49.046;8.468;2022-07-01T06:59:10;8.67;;;4.87;;
142;SDS011;23959;49.046;8.468;2022-07-01T07:01:36;13.10;;;5.27;;
142;SDS011;23959;49.046;8.468;2022-07-01T07:04:02;7.57;;;5.40;;
142;SDS011;23959;49.046;8.468;2022-07-01T07:06:29;10.07;;;5.83;;
142;SDS011;23959;49.046;8.468;2022-07-01T07:08:55;9.90;;;5.40;;
142;SDS011;23959;49.046;8.468;2022-07-01T07:11:21;8.13;;;5.50;;
142;SDS011;23959;49.046;8.468;2022-07-01T07:13:47;8.53;;;5.70;;
142;SDS011;23959;49.046;8.468;2022-07-01T07:16:14;10.90;;;5.23;;
142;SDS011;23959;49.046;8.468;2022-07-01T07:18:40;8.00;;;5.70;;
142;SDS011;23959;49.046;8.468;2022-07-01T07:21:06;10.33;;;6.60;;
142;SDS011;23959;49.046;8.468;2022-07-01T07:23:33;10.33;;;6.30;;
142;SDS011;23959;49.046;8.468;2022-07-01T07:25:59;9.23;;;6.10;;
142;SDS011;23959;49.046;8.468;2022-07-01T07:28:25;8.27;;;6.00;;
142;SDS011;23959;49.046;8.468;2022-07-01T07:30:52;9.47;;;6.03;;
142;SDS011;23959;49.046;8.468;2022-07-01T07:33:18;9.33;;;6.40;;
142;SDS011;23959;49.046;8.468;2022-07-01T07:35:44;9.73;;;5.77;;
142;SDS011;23959;49.046;8.468;2022-07-01T07:38:10;13.03;;;6.27;;
142;SDS011;23959;49.046;8.468;2022-07-01T07:40:37;10.00;;;5.70;;
142;SDS011;23959;49.046;8.468;2022-07-01T07:43:03;10.47;;;6.10;;
142;SDS011;23959;49.046;8.468;2022-07-01T07:45:31;10.90;;;6.30;;
142;SDS011;23959;49.046;8.468;2022-07-01T07:47:57;8.33;;;5.90;;
142;SDS011;23959;49.046;8.468;2022-07-01T07:50:23;11.17;;;6.00;;
142;SDS011;23959;49.046;8.468;2022-07-01T07:52:49;7.27;;;5.37;;
142;SDS011;23959;49.046;8.468;2022-07-01T07:55:16;8.37;;;5.33;;
142;SDS011;23959;49.046;8.468;2022-07-01T07:57:42;10.50;;;5.30;;
142;SDS011;23959;49.046;8.468;2022-07-01T08:00:09;8.30;;;4.97;;
142;SDS011;23959;49.046;8.468;2022-07-01T08:02:37;8.47;;;5.57;;
142;SDS011;23959;49.046;8.468;2022-07-01T08:05:05;10.10;;;6.23;;
142;SDS011;23959;49.046;8.468;2022-07-01T08:07:39;15.77;;;5.50;;
142;SDS011;23959;49.046;8.468;2022-07-01T08:10:07;9.27;;;6.20;;
142;SDS011;23959;49.046;8.468;2022-07-01T08:12:34;9.80;;;5.20;;
142;SDS011;23959;49.046;8.468;2022-07-01T08:15:00;13.50;;;5.50;;
142;SDS011;23959;49.046;8.468;2022-07-01T08:17:27;8.43;;;5.50;;
142;SDS011;23959;49.046;8.468;2022-07-01T08:19:53;7.87;;;5.43;;
142;SDS011;23959;49.046;8.468;2022-07-01T08:22:19;11.17;;;5.90;;
142;SDS011;23959;49.046;8.468;2022-07-01T08:24:45;8.23;;;5.53;;
142;SDS011;23959;49.046;8.468;2022-07-01T08:27:11;6.47;;;5.20;;
142;SDS011;23959;49.046;8.468;2022-07-01T08:29:40;8.30;;;6.03;;
142;SDS011;23959;49.046;8.468;2022-07-01T08:32:06;9.60;;;5.23;;
142;SDS011;23959;49.046;8.468;2022-07-01T08:34:34;7.80;;;5.20;;
142;SDS011;23959;49.046;8.468;2022-07-01T08:37:01;8.80;;;4.70;;
142;SDS011;23959;49.046;8.468;2022-07-01T08:39:29;8.77;;;5.40;;
142;SDS011;23959;49.046;8.468;2022-07-01T08:41:55;6.10;;;4.80;;
142;SDS011;23959;49.046;8.468;2022-07-01T08:44:22;8.43;;;5.33;;
142;SDS011;23959;49.046;8.468;2022-07-01T08:46:49;8.70;;;5.37;;
142;SDS011;23959;49.046;8.468;2022-07-01T08:49:15;7.17;;;4.33;;
142;SDS011;23959;49.046;8.468;2022-07-01T08:51:42;10.20;;;4.47;;
142;SDS011;23959;49.046;8.468;2022-07-01T08:54:09;8.80;;;4.50;;
142;SDS011;23959;49.046;8.468;2022-07-01T08:56:35;4.83;;;4.40;;
142;SDS011;23959;49.046;8.468;2022-07-01T08:59:10;9.30;;;5.00;;
142;SDS011;23959;49.046;8.468;2022-07-01T09:01:38;9.70;;;4.50;;
142;SDS011;23959;49.046;8.468;2022-07-01T09:04:13;7.70;;;4.50;;
142;SDS011;23959;49.046;8.468;2022-07-01T09:06:43;5.50;;;4.50;;
142;SDS011;23959;49.046;8.468;2022-07-01T09:09:17;6.23;;;4.30;;
142;SDS011;23959;49.046;8.468;2022-07-01T09:11:46;8.13;;;3.70;;
142;SDS011;23959;49.046;8.468;2022-07-01T09:14:19;5.10;;;3.70;;
142;SDS011;23959;49.046;8.468;2022-07-01T09:16:48;6.50;;;3.90;;
142;SDS011;23959;49.046;8.468;2022-07-01T09:19:16;4.67;;;4.00;;
142;SDS011;23959;49.046;8.468;2022-07-01T09:21:50;5.30;;;3.37;;
142;SDS011;23959;49.046;8.468;2022-07-01T09:24:26;4.63;;;3.53;;
142;SDS011;23959;49.046;8.468;2022-07-01T09:29:27;3.73;;;3.33;;
142;SDS011;23959;49.046;8.468;2022-07-01T09:31:57;5.23;;;3.37;;
142;SDS011;23959;49.046;8.468;2022-07-01T09:34:24;4.87;;;3.50;;
142;SDS011;23959;49.046;8.468;2022-07-01T09:36:51;4.83;;;3.70;;
142;SDS011;23959;49.046;8.468;2022-07-01T09:39:18;6.47;;;3.47;;
142;SDS011;23959;49.046;8.468;2022-07-01T09:41:44;3.87;;;3.13;;
142;SDS011;23959;49.046;8.468;2022-07-01T09:44:13;3.13;;;2.93;;
142;SDS011;23959;49.046;8.468;2022-07-01T09:46:50;4.10;;;3.30;;
142;SDS011;23959;49.046;8.468;2022-07-01T09:49:21;4.20;;;3.67;;
142;SDS011;23959;49.046;8.468;2022-07-01T09:51:48;3.30;;;3.10;;
142;SDS011;23959;49.046;8.468;2022-07-01T09:54:16;3.33;;;3.20;;
142;SDS011;23959;49.046;8.468;2022-07-01T09:56:43;3.47;;;3.33;;
142;SDS011;23959;49.046;8.468;2022-07-01T09:59:10;3.70;;;3.03;;
142;SDS011;23959;49.046;8.468;2022-07-01T10:01:40;3.70;;;2.83;;
142;SDS011;23959;49.046;8.468;2022-07-01T10:04:12;3.00;;;2.80;;
142;SDS011;23959;49.046;8.468;2022-07-01T10:12:50;3.40;;;2.87;;
142;SDS011;23959;49.046;8.468;2022-07-01T10:16:14;4.30;;;3.20;;
142;SDS011;23959;49.046;8.468;2022-07-01T10:18:43;3.23;;;2.80;;
142;SDS011;23959;49.046;8.468;2022-07-01T10:21:09;3.50;;;3.13;;
142;SDS011;23959;49.046;8.468;2022-07-01T10:24:10;3.40;;;2.93;;
142;SDS011;23959;49.046;8.468;2022-07-01T10:56:48;5.10;;;2.80;;
142;SDS011;23959;49.046;8.468;2022-07-01T10:59:18;3.13;;;2.87;;
142;SDS011;23959;49.046;8.468;2022-07-01T11:01:44;7.03;;;3.00;;
142;SDS011;23959;49.046;8.468;2022-07-01T11:04:10;3.33;;;2.80;;
142;SDS011;23959;49.046;8.468;2022-07-01T11:06:36;3.47;;;2.90;;
142;SDS011;23959;49.046;8.468;2022-07-01T11:09:04;6.50;;;2.83;;
142;SDS011;23959;49.046;8.468;2022-07-01T11:11:30;7.30;;;3.20;;
142;SDS011;23959;49.046;8.468;2022-07-01T11:13:57;2.90;;;2.70;;
142;SDS011;23959;49.046;8.468;2022-07-01T11:16:24;2.93;;;2.57;;
142;SDS011;23959;49.046;8.468;2022-07-01T11:18:53;6.07;;;2.90;;
142;SDS011;23959;49.046;8.468;2022-07-01T11:21:19;5.00;;;2.80;;
142;SDS011;23959;49.046;8.468;2022-07-01T11:23:54;2.93;;;2.23;;
142;SDS011;23959;49.046;8.468;2022-07-01T11:26:24;3.13;;;2.53;;
142;SDS011;23959;49.046;8.468;2022-07-01T11:28:50;2.07;;;1.97;;
142;SDS011;23959;49.046;8.468;2022-07-01T11:31:26;2.70;;;2.10;;
142;SDS011;23959;49.046;8.468;2022-07-01T11:33:56;2.57;;;2.30;;
142;SDS011;23959;49.046;8.468;2022-07-01T11:36:22;3.33;;;2.40;;
142;SDS011;23959;49.046;8.468;2022-07-01T11:39:18;2.47;;;2.13;;
142;SDS011;23959;49.046;8.468;2022-07-01T11:41:58;3.30;;;2.90;;
142;SDS011;23959;49.046;8.468;2022-07-01T11:44:37;3.37;;;2.63;;
142;SDS011;23959;49.046;8.468;2022-07-01T11:47:06;2.60;;;2.40;;
142;SDS011;23959;49.046;8.468;2022-07-01T11:49:34;3.27;;;2.33;;
142;SDS011;23959;49.046;8.468;2022-07-01T11:52:12;6.60;;;2.70;;
142;SDS011;23959;49.046;8.468;2022-07-01T11:54:39;3.23;;;2.63;;
142;SDS011;23959;49.046;8.468;2022-07-01T11:57:07;3.47;;;2.30;;
142;SDS011;23959;49.046;8.468;2022-07-01T11:59:37;2.47;;;2.30;;
142;SDS011;23959;49.046;8.468;2022-07-01T12:02:04;3.57;;;2.53;;
142;SDS011;23959;49.046;8.468;2022-07-01T12:04:31;2.57;;;2.10;;
142;SDS011;23959;49.046;8.468;2022-07-01T12:06:58;2.57;;;2.37;;
142;SDS011;23959;49.046;8.468;2022-07-01T12:09:25;4.27;;;2.77;;
142;SDS011;23959;49.046;8.468;2022-07-01T12:11:53;2.60;;;2.50;;
142;SDS011;23959;49.046;8.468;2022-07-01T12:14:20;5.00;;;2.70;;
142;SDS011;23959;49.046;8.468;2022-07-01T12:16:47;3.13;;;2.57;;
142;SDS011;23959;49.046;8.468;2022-07-01T12:19:18;2.83;;;2.33;;
142;SDS011;23959;49.046;8.468;2022-07-01T12:21:54;4.30;;;2.40;;
142;SDS011;23959;49.046;8.468;2022-07-01T12:24:25;3.80;;;2.20;;
142;SDS011;23959;49.046;8.468;2022-07-01T12:26:53;4.30;;;2.50;;
142;SDS011;23959;49.046;8.468;2022-07-01T12:29:49;2.77;;;2.40;;
142;SDS011;23959;49.046;8.468;2022-07-01T12:32:17;2.30;;;2.10;;
142;SDS011;23959;49.046;8.468;2022-07-01T12:34:49;4.00;;;2.80;;
142;SDS011;23959;49.046;8.468;2022-07-01T12:37:21;2.83;;;2.70;;
142;SDS011;23959;49.046;8.468;2022-07-01T12:39:56;2.50;;;2.30;;
142;SDS011;23959;49.046;8.468;2022-07-01T12:42:28;3.30;;;2.57;;
142;SDS011;23959;49.046;8.468;2022-07-01T12:45:06;7.10;;;2.90;;
142;SDS011;23959;49.046;8.468;2022-07-01T12:47:34;6.23;;;2.53;;
142;SDS011;23959;49.046;8.468;2022-07-01T12:55:33;2.60;;;2.43;;
142;SDS011;23959;49.046;8.468;2022-07-01T12:58:04;4.70;;;2.70;;
142;SDS011;23959;49.046;8.468;2022-07-01T13:00:41;4.40;;;2.53;;
142;SDS011;23959;49.046;8.468;2022-07-01T13:03:09;2.87;;;2.67;;
142;SDS011;23959;49.046;8.468;2022-07-01T13:05:36;4.83;;;2.53;;
142;SDS011;23959;49.046;8.468;2022-07-01T13:08:08;3.40;;;2.40;;
142;SDS011;23959;49.046;8.468;2022-07-01T13:10:34;6.13;;;2.60;;
142;SDS011;23959;49.046;8.468;2022-07-01T13:13:01;4.10;;;2.60;;
142;SDS011;23959;49.046;8.468;2022-07-01T13:15:27;4.13;;;2.40;;
142;SDS011;23959;49.046;8.468;2022-07-01T13:17:54;2.80;;;2.60;;
142;SDS011;23959;49.046;8.468;2022-07-01T13:20:20;2.53;;;2.33;;
142;SDS011;23959;49.046;8.468;2022-07-01T13:22:47;2.90;;;2.70;;
142;SDS011;23959;49.046;8.468;2022-07-01T13:25:13;3.10;;;2.43;;
142;SDS011;23959;49.046;8.468;2022-07-01T13:27:40;2.70;;;2.57;;
142;SDS011;23959;49.046;8.468;2022-07-01T13:30:08;3.00;;;2.33;;
142;SDS011;23959;49.046;8.468;2022-07-01T13:32:36;3.60;;;2.33;;
142;SDS011;23959;49.046;8.468;2022-07-01T13:35:02;2.83;;;2.20;;
142;SDS011;23959;49.046;8.468;2022-07-01T13:37:29;3.77;;;2.37;;
142;SDS011;23959;49.046;8.468;2022-07-01T13:39:55;3.27;;;2.40;;
142;SDS011;23959;49.046;8.468;2022-07-01T13:42:22;2.97;;;2.43;;
142;SDS011;23959;49.046;8.468;2022-07-01T13:44:48;5.20;;;2.90;;
142;SDS011;23959;49.046;8.468;2022-07-01T13:47:16;3.23;;;2.30;;
142;SDS011;23959;49.046;8.468;2022-07-01T13:49:42;2.60;;;2.20;;
142;SDS011;23959;49.046;8.468;2022-07-01T13:52:09;2.43;;;2.23;;
142;SDS011;23959;49.046;8.468;2022-07-01T13:54:36;2.70;;;2.50;;
142;SDS011;23959;49.046;8.468;2022-07-01T13:57:03;3.60;;;2.50;;
142;SDS011;23959;49.046;8.468;2022-07-01T13:59:30;3.77;;;2.40;;
142;SDS011;23959;49.046;8.468;2022-07-01T14:01:56;2.80;;;2.20;;
142;SDS011;23959;49.046;8.468;2022-07-01T14:04:24;4.97;;;2.60;;
142;SDS011;23959;49.046;8.468;2022-07-01T14:06:50;3.30;;;2.40;;
142;SDS011;23959;49.046;8.468;2022-07-01T14:09:16;4.60;;;2.50;;
142;SDS011;23959;49.046;8.468;2022-07-01T14:11:42;6.43;;;2.47;;
142;SDS011;23959;49.046;8.468;2022-07-01T14:14:10;5.20;;;2.40;;
142;SDS011;23959;49.046;8.468;2022-07-01T14:16:36;2.30;;;2.10;;
142;SDS011;23959;49.046;8.468;2022-07-01T14:19:02;2.13;;;2.03;;
142;SDS011;23959;49.046;8.468;2022-07-01T14:21:28;2.43;;;2.23;;
142;SDS011;23959;49.046;8.468;2022-07-01T14:23:55;3.40;;;2.23;;
142;SDS011;23959;49.046;8.468;2022-07-01T14:26:21;2.33;;;2.13;;
142;SDS011;23959;49.046;8.468;2022-07-01T14:28:47;3.80;;;2.30;;
142;SDS011;23959;49.046;8.468;2022-07-01T14:31:13;2.50;;;2.27;;
142;SDS011;23959;49.046;8.468;2022-07-01T14:33:40;7.20;;;2.53;;
142;SDS011;23959;49.046;8.468;2022-07-01T14:36:06;2.50;;;2.20;;
142;SDS011;23959;49.046;8.468;2022-07-01T14:38:32;3.07;;;2.33;;
142;SDS011;23959;49.046;8.468;2022-07-01T14:40:58;2.47;;;2.27;;
142;SDS011;23959;49.046;8.468;2022-07-01T14:43:25;2.77;;;2.30;;
142;SDS011;23959;49.046;8.468;2022-07-01T14:45:51;5.53;;;2.27;;
142;SDS011;23959;49.046;8.468;2022-07-01T14:48:17;4.53;;;2.30;;
142;SDS011;23959;49.046;8.468;2022-07-01T14:50:43;2.47;;;2.27;;
142;SDS011;23959;49.046;8.468;2022-07-01T14:53:09;4.00;;;2.63;;
142;SDS011;23959;49.046;8.468;2022-07-01T14:55:35;3.10;;;2.60;;
142;SDS011;23959;49.046;8.468;2022-07-01T14:58:02;3.23;;;2.40;;
142;SDS011;23959;49.046;8.468;2022-07-01T15:00:28;3.63;;;2.40;;
142;SDS011;23959;49.046;8.468;2022-07-01T15:02:54;4.50;;;2.70;;
142;SDS011;23959;49.046;8.468;2022-07-01T15:05:22;3.03;;;2.60;;
142;SDS011;23959;49.046;8.468;2022-07-01T15:07:48;2.60;;;2.30;;
142;SDS011;23959;49.046;8.468;2022-07-01T15:10:15;2.67;;;2.50;;
142;SDS011;23959;49.046;8.468;2022-07-01T15:12:41;3.00;;;2.80;;
142;SDS011;23959;49.046;8.468;2022-07-01T15:15:07;4.10;;;2.90;;
142;SDS011;23959;49.046;8.468;2022-07-01T15:17:40;3.23;;;2.50;;
142;SDS011;23959;49.046;8.468;2022-07-01T15:20:09;5.77;;;2.60;;
142;SDS011;23959;49.046;8.468;2022-07-01T15:22:36;5.07;;;2.30;;
142;SDS011;23959;49.046;8.468;2022-07-01T15:25:03;6.60;;;2.47;;
142;SDS011;23959;49.046;8.468;2022-07-01T15:27:29;6.77;;;2.80;;
142;SDS011;23959;49.046;8.468;2022-07-01T15:29:56;2.70;;;2.50;;
142;SDS011;23959;49.046;8.468;2022-07-01T15:32:22;4.03;;;2.47;;
142;SDS011;23959;49.046;8.468;2022-07-01T15:34:48;2.97;;;2.50;;
142;SDS011;23959;49.046;8.468;2022-07-01T15:37:15;3.33;;;2.50;;
142;SDS011;23959;49.046;8.468;2022-07-01T15:39:41;2.90;;;2.70;;
142;SDS011;23959;49.046;8.468;2022-07-01T15:42:07;3.50;;;2.73;;
142;SDS011;23959;49.046;8.468;2022-07-01T15:44:34;3.40;;;2.37;;
142;SDS011;23959;49.046;8.468;2022-07-01T15:47:00;3.33;;;2.70;;
142;SDS011;23959;49.046;8.468;2022-07-01T15:49:45;3.00;;;2.73;;
142;SDS011;23959;49.046;8.468;2022-07-01T15:52:11;7.00;;;2.53;;
142;SDS011;23959;49.046;8.468;2022-07-01T15:54:37;2.90;;;2.40;;
142;SDS011;23959;49.046;8.468;2022-07-01T15:57:04;3.07;;;2.47;;
142;SDS011;23959;49.046;8.468;2022-07-01T15:59:30;5.53;;;2.37;;
142;SDS011;23959;49.046;8.468;2022-07-01T16:01:56;3.27;;;2.30;;
142;SDS011;23959;49.046;8.468;2022-07-01T16:04:23;6.40;;;2.30;;